Time;durP1;ratioP1;P1;durP2;ratioP2;P2;SDS_P1;SDS_P2;PMS_P1;PMS_P2;Temp;Humidity;BMP_temperature;BMP_pressure;BME280_temperature;BME280_humidity;BME280_pressure;Samples;Min_cycle;Max_cycle;Signal;HPM_P1;HPM_P2
2022/02/28 00:01:59;;;;;;;2.02;0.93;;;;;;;0.69;72.02;100601.27;1756729;80;21021;-62
2022/02/28 00:04:25;;;;;;;0.85;0.78;;;;;;;0.63;71.44;100600.27;1757140;80;21068;-63
2022/02/28 00:06:53;;;;;;;2.27;1.12;;;;;;;0.58;70.45;100592.66;1746171;80;20861;-63
2022/02/28 00:09:20;;;;;;;1.55;1.10;;;;;;;0.52;70.25;100602.14;1758082;80;21152;-64
2022/02/28 00:11:47;;;;;;;1.98;0.90;;;;;;;0.49;70.15;100598.86;1754780;80;20852;-62
2022/02/28 00:14:13;;;;;;;2.58;1.02;;;;;;;0.43;70.12;100597.86;1752146;80;20889;-62
2022/02/28 00:16:41;;;;;;;2.80;1.05;;;;;;;0.41;70.22;100602.33;1754555;80;20998;-67
2022/02/28 00:19:10;;;;;;;1.10;1.00;;;;;;;0.39;70.38;100601.58;1752158;80;21047;-63
2022/02/28 00:21:38;;;;;;;1.85;1.20;;;;;;;0.35;70.46;100596.95;1757691;80;20953;-63
2022/02/28 00:24:09;;;;;;;2.35;1.00;;;;;;;0.33;70.54;100596.19;1755158;80;21541;-63
2022/02/28 00:26:38;;;;;;;1.62;0.80;;;;;;;0.33;70.65;100604.50;1747569;80;20948;-64
2022/02/28 00:29:05;;;;;;;1.62;0.90;;;;;;;0.35;70.82;100594.78;1755391;80;21453;-64
2022/02/28 00:31:34;;;;;;;2.33;1.20;;;;;;;0.39;70.94;100597.65;1743807;80;20975;-62
2022/02/28 00:34:02;;;;;;;1.40;1.25;;;;;;;0.45;71.02;100591.61;1737684;80;21541;-63
2022/02/28 00:36:29;;;;;;;1.20;1.00;;;;;;;0.50;71.00;100593.98;1735908;80;21071;-61
2022/02/28 00:38:56;;;;;;;2.85;1.20;;;;;;;0.52;70.99;100590.36;1756104;80;20848;-61
2022/02/28 00:41:26;;;;;;;1.80;0.98;;;;;;;0.52;70.96;100590.36;1760550;80;20953;-62
2022/02/28 00:43:53;;;;;;;2.58;1.32;;;;;;;0.52;71.00;100586.43;1761181;80;21445;-63
2022/02/28 00:46:20;;;;;;;3.12;1.20;;;;;;;0.55;71.02;100590.66;1769051;80;21104;-62
2022/02/28 00:48:46;;;;;;;2.40;1.15;;;;;;;0.52;70.97;100586.92;1758353;80;20891;-60
2022/02/28 00:51:13;;;;;;;2.50;1.45;;;;;;;0.49;70.96;100592.31;1749635;80;20911;-61
2022/02/28 00:53:40;;;;;;;2.40;1.17;;;;;;;0.46;71.04;100595.08;1728192;81;21454;-63
2022/02/28 00:56:06;;;;;;;2.10;1.12;;;;;;;0.41;71.17;100591.86;1728345;80;20993;-62
2022/02/28 00:58:34;;;;;;;1.82;1.17;;;;;;;0.36;71.20;100593.88;1725874;82;21146;-61
2022/02/28 01:01:01;;;;;;;1.90;1.25;;;;;;;0.33;71.31;100601.88;1724395;80;20974;-63
2022/02/28 01:03:28;;;;;;;1.67;0.98;;;;;;;0.29;71.40;100597.25;1726432;82;21519;-63
2022/02/28 01:05:54;;;;;;;1.45;0.85;;;;;;;0.28;71.55;100603.44;1736693;82;20977;-63
2022/02/28 01:08:21;;;;;;;1.57;0.82;;;;;;;0.30;71.63;100600.72;1735497;82;20991;-62
2022/02/28 01:10:49;;;;;;;2.20;1.15;;;;;;;0.31;71.68;100599.81;1735645;81;21954;-61
2022/02/28 01:13:16;;;;;;;2.62;0.98;;;;;;;0.34;71.70;100599.66;1730243;82;21009;-61
2022/02/28 01:15:43;;;;;;;3.00;1.25;;;;;;;0.38;71.70;100606.41;1731358;82;21469;-62
2022/02/28 01:18:09;;;;;;;2.27;1.00;;;;;;;0.43;71.66;100601.78;1728434;82;21005;-63
2022/02/28 01:20:36;;;;;;;2.00;1.07;;;;;;;0.46;71.61;100604.25;1732637;81;21106;-60
2022/02/28 01:23:03;;;;;;;1.32;0.78;;;;;;;0.48;71.57;100606.31;1732477;81;21155;-63
2022/02/28 01:25:30;;;;;;;1.72;0.98;;;;;;;0.49;71.61;100604.95;1731987;82;20890;-62
2022/02/28 01:27:56;;;;;;;1.52;0.95;;;;;;;0.50;71.70;100608.38;1722166;82;20962;-62
2022/02/28 01:30:23;;;;;;;1.90;1.00;;;;;;;0.50;71.78;100611.00;1733797;82;21461;-63
2022/02/28 01:32:49;;;;;;;1.27;0.85;;;;;;;0.53;72.08;100610.85;1733452;82;21080;-62
2022/02/28 01:35:16;;;;;;;1.15;1.00;;;;;;;0.54;72.06;100613.86;1735057;82;21381;-61
2022/02/28 01:37:43;;;;;;;1.25;0.85;;;;;;;0.54;72.12;100614.72;1734737;82;20882;-63
2022/02/28 01:40:13;;;;;;;4.03;1.37;;;;;;;0.55;72.16;100616.39;1735407;82;20918;-63
2022/02/28 01:42:42;;;;;;;2.15;0.85;;;;;;;0.56;72.23;100618.09;1727881;82;20982;-61
2022/02/28 01:45:11;;;;;;;3.77;1.62;;;;;;;0.58;72.30;100613.62;1711701;82;20942;-61
2022/02/28 01:47:38;;;;;;;1.57;0.98;;;;;;;0.58;72.36;100611.00;1726617;82;21080;-62
2022/02/28 01:50:06;;;;;;;3.12;1.20;;;;;;;0.56;72.42;100612.00;1734559;82;20943;-61
2022/02/28 01:52:33;;;;;;;2.52;1.30;;;;;;;0.56;72.56;100615.93;1726056;81;20864;-63
2022/02/28 01:55:02;;;;;;;2.50;1.10;;;;;;;0.55;72.60;100612.92;1710465;81;20925;-63
2022/02/28 01:57:30;;;;;;;1.55;0.72;;;;;;;0.54;72.81;100616.48;1710316;82;20976;-62
2022/02/28 01:59:57;;;;;;;4.08;1.12;;;;;;;0.52;74.84;100618.34;1732982;82;21250;-61
2022/02/28 02:02:24;;;;;;;1.92;1.30;;;;;;;0.51;75.41;100628.42;1734409;81;21425;-61
2022/02/28 02:04:50;;;;;;;1.45;1.12;;;;;;;0.49;80.13;100621.11;1721841;81;20984;-62
2022/02/28 02:07:17;;;;;;;4.55;1.30;;;;;;;0.46;80.93;100626.05;1733511;81;20893;-62
2022/02/28 02:09:44;;;;;;;3.67;1.07;;;;;;;0.44;80.95;100622.63;1738926;81;20917;-63
2022/02/28 02:12:12;;;;;;;4.67;1.00;;;;;;;0.41;83.20;100623.28;1737467;82;20977;-62
2022/02/28 02:14:39;;;;;;;1.40;1.20;;;;;;;0.40;83.83;100620.27;1717538;82;20992;-62
2022/02/28 02:17:06;;;;;;;2.45;1.20;;;;;;;0.38;84.21;100622.12;1728585;82;20858;-63
2022/02/28 02:19:36;;;;;;;2.37;1.02;;;;;;;0.36;85.10;100620.91;1738902;82;21013;-61
2022/02/28 02:22:06;;;;;;;2.45;1.10;;;;;;;0.38;85.29;100616.89;1737029;82;21486;-61
2022/02/28 02:24:33;;;;;;;3.92;1.40;;;;;;;0.35;88.91;100623.58;1731688;82;21046;-60
2022/02/28 02:26:59;;;;;;;1.98;0.93;;;;;;;0.32;91.21;100625.05;1732063;82;20971;-62
2022/02/28 02:29:26;;;;;;;2.47;0.90;;;;;;;0.29;93.48;100625.19;1735635;82;21015;-62
2022/02/28 02:31:52;;;;;;;2.40;1.25;;;;;;;0.09;97.22;100627.52;1736040;82;20977;-61
2022/02/28 02:34:18;;;;;;;3.33;1.32;;;;;;;0.31;100.00;100625.98;1718274;82;21588;-62
2022/02/28 02:36:45;;;;;;;2.20;1.10;;;;;;;0.33;100.00;100622.82;1719186;81;21190;-63
2022/02/28 02:39:11;;;;;;;2.37;1.22;;;;;;;0.37;100.00;100628.27;1730461;81;21530;-63
2022/02/28 02:41:37;;;;;;;2.52;1.22;;;;;;;0.35;100.00;100628.36;1731261;81;20993;-62
2022/02/28 02:44:04;;;;;;;3.35;1.32;;;;;;;0.35;100.00;100636.21;1702510;82;21403;-61
2022/02/28 02:46:32;;;;;;;1.72;1.07;;;;;;;0.39;100.00;100631.68;1719439;82;20995;-62
2022/02/28 02:49:01;;;;;;;2.40;1.22;;;;;;;0.39;100.00;100629.06;1729412;81;22071;-62
2022/02/28 02:51:27;;;;;;;2.35;1.02;;;;;;;0.42;100.00;100628.42;1694708;82;21011;-62
2022/02/28 02:53:55;;;;;;;1.32;0.98;;;;;;;-141.83;100.00;119307.58;1742009;81;21424;-62
2022/02/28 02:56:22;;;;;;;1.70;1.05;;;;;;;0.41;100.00;100628.52;1743073;82;20936;-62
2022/02/28 02:58:48;;;;;;;2.27;1.00;;;;;;;-75.46;100.00;119308.11;1742903;82;20964;-61
2022/02/28 03:01:19;;;;;;;2.10;1.17;;;;;;;0.56;100.00;119307.58;1744247;80;21829;-62
